Time;durP1;ratioP1;P1;durP2;ratioP2;P2;SDS_P1;SDS_P2;PMS_P1;PMS_P2;Temp;Humidity;BMP_temperature;BMP_pressure;BME280_temperature;BME280_humidity;BME280_pressure;Samples;Min_cycle;Max_cycle;Signal;HPM_P1;HPM_P2
2023/01/29 00:02:17;;;;;;;5.23;3.37;;;;;;;;;;5051757;28;20135;-77
2023/01/29 00:04:43;;;;;;;9.77;3.47;;;;;;;;;;5053291;28;20039;-74
2023/01/29 00:07:09;;;;;;;7.40;3.40;;;;;;;;;;5051559;28;20032;-75
2023/01/29 00:09:34;;;;;;;4.57;3.30;;;;;;;;;;5052856;28;20028;-76
2023/01/29 00:12:00;;;;;;;3.87;3.20;;;;;;;;;;5051668;28;20131;-75
2023/01/29 00:14:26;;;;;;;4.40;3.93;;;;;;;;;;5051813;28;20033;-78
2023/01/29 00:16:52;;;;;;;7.00;3.70;;;;;;;;;;5050939;28;20036;-75
2023/01/29 00:19:18;;;;;;;6.43;3.90;;;;;;;;;;5051482;28;20124;-78
2023/01/29 00:21:44;;;;;;;11.20;3.97;;;;;;;;;;5051432;28;20033;-77
2023/01/29 00:24:10;;;;;;;4.63;3.37;;;;;;;;;;5053177;28;20461;-75
2023/01/29 00:26:37;;;;;;;8.70;3.93;;;;;;;;;;5052535;28;20029;-76
2023/01/29 00:29:04;;;;;;;5.83;3.60;;;;;;;;;;5053063;28;20044;-77
2023/01/29 00:31:30;;;;;;;6.03;4.23;;;;;;;;;;5053004;28;20472;-76
2023/01/29 00:33:57;;;;;;;4.00;3.60;;;;;;;;;;5051727;28;20083;-75
2023/01/29 00:36:23;;;;;;;9.30;5.30;;;;;;;;;;5051475;28;20039;-78
2023/01/29 00:38:58;;;;;;;6.90;4.13;;;;;;;;;;5051336;28;20098;-78
2023/01/29 00:47:02;;;;;;;6.37;3.90;;;;;;;;;;5053592;28;20039;-76
2023/01/29 00:49:29;;;;;;;6.00;4.13;;;;;;;;;;5051315;28;20025;-75
2023/01/29 00:54:38;;;;;;;9.70;4.57;;;;;;;;;;5052958;28;20078;-76
2023/01/29 00:57:04;;;;;;;6.20;4.00;;;;;;;;;;5051416;28;20017;-75
2023/01/29 00:59:29;;;;;;;6.43;4.00;;;;;;;;;;5052609;28;20404;-76
2023/01/29 01:04:39;;;;;;;7.50;2.63;;;;;;;;;;5053345;28;20376;-77
2023/01/29 01:07:05;;;;;;;7.20;3.87;;;;;;;;;;5052353;28;20021;-77
2023/01/29 01:12:14;;;;;;;5.47;3.40;;;;;;;;;;5052434;28;20083;-74
2023/01/29 01:14:42;;;;;;;5.43;3.97;;;;;;;;;;5051026;28;20033;-77
2023/01/29 01:17:08;;;;;;;5.10;3.30;;;;;;;;;;5052187;28;20021;-77
2023/01/29 01:19:33;;;;;;;16.13;4.27;;;;;;;;;;5051331;28;20031;-76
2023/01/29 01:21:59;;;;;;;6.77;3.73;;;;;;;;;;5051359;28;20124;-77
2023/01/29 01:24:24;;;;;;;6.20;4.07;;;;;;;;;;5051718;28;20032;-77
2023/01/29 01:26:50;;;;;;;6.57;3.87;;;;;;;;;;5052071;28;20060;-77
2023/01/29 01:29:15;;;;;;;8.30;4.00;;;;;;;;;;5054006;28;20033;-76
2023/01/29 01:31:41;;;;;;;8.27;4.73;;;;;;;;;;5054468;28;20055;-75
2023/01/29 01:34:06;;;;;;;9.20;4.83;;;;;;;;;;5054710;28;20017;-74
2023/01/29 01:36:32;;;;;;;10.00;4.80;;;;;;;;;;5056069;28;20028;-77
2023/01/29 01:38:57;;;;;;;5.40;4.00;;;;;;;;;;5055062;28;20017;-75
2023/01/29 01:41:24;;;;;;;7.70;5.27;;;;;;;;;;5056371;28;20468;-75
2023/01/29 01:43:56;;;;;;;7.37;4.17;;;;;;;;;;5054251;28;20132;-77
2023/01/29 01:46:23;;;;;;;7.33;4.70;;;;;;;;;;5055170;28;20412;-77
2023/01/29 01:48:55;;;;;;;6.70;5.10;;;;;;;;;;5055801;28;20036;-75
2023/01/29 01:51:24;;;;;;;9.18;5.10;;;;;;;;;;5054389;28;20065;-75
2023/01/29 01:54:01;;;;;;;8.63;5.77;;;;;;;;;;5055767;28;20116;-78
2023/01/29 01:56:37;;;;;;;7.87;5.33;;;;;;;;;;5054100;28;20406;-76
2023/01/29 01:59:08;;;;;;;9.80;5.27;;;;;;;;;;5054787;28;20079;-76
2023/01/29 02:01:34;;;;;;;8.50;5.60;;;;;;;;;;5055488;28;20033;-77
2023/01/29 02:09:45;;;;;;;8.50;4.53;;;;;;;;;;5055975;28;20452;-74
2023/01/29 02:12:12;;;;;;;8.13;5.03;;;;;;;;;;5054006;28;20036;-76
2023/01/29 02:14:39;;;;;;;10.03;4.87;;;;;;;;;;5053924;28;20055;-76
2023/01/29 02:17:14;;;;;;;10.57;5.63;;;;;;;;;;5036973;28;20029;-78
2023/01/29 02:19:49;;;;;;;8.33;5.07;;;;;;;;;;5053765;28;20025;-77
2023/01/29 02:22:28;;;;;;;7.67;4.97;;;;;;;;;;5054096;28;20374;-77
2023/01/29 02:25:15;;;;;;;13.20;6.07;;;;;;;;;;5053759;28;20161;-75
2023/01/29 02:27:54;;;;;;;11.83;6.33;;;;;;;;;;5053531;28;20039;-74
2023/01/29 02:30:27;;;;;;;10.30;6.07;;;;;;;;;;5037697;28;20448;-75
2023/01/29 02:33:08;;;;;;;12.97;8.30;;;;;;;;;;5055214;28;20033;-76
2023/01/29 02:35:49;;;;;;;10.23;6.63;;;;;;;;;;5053788;28;20031;-77
2023/01/29 02:39:06;;;;;;;10.75;5.45;;;;;;;;;;5054888;28;20024;-75
2023/01/29 02:41:57;;;;;;;9.33;6.20;;;;;;;;;;5052757;28;20124;-74
2023/01/29 02:44:39;;;;;;;14.13;7.47;;;;;;;;;;5053188;28;20080;-73
2023/01/29 02:47:08;;;;;;;9.70;6.63;;;;;;;;;;5054645;28;20029;-75
2023/01/29 02:49:40;;;;;;;13.57;6.90;;;;;;;;;;5054566;28;20021;-77
2023/01/29 02:52:15;;;;;;;15.33;7.07;;;;;;;;;;5054389;28;20029;-75
2023/01/29 02:54:49;;;;;;;12.83;7.53;;;;;;;;;;5052802;28;20033;-76
2023/01/29 02:57:29;;;;;;;14.87;7.63;;;;;;;;;;5052931;28;20366;-77
2023/01/29 02:59:59;;;;;;;14.93;7.20;;;;;;;;;;5052852;28;20028;-77
2023/01/29 03:03:06;;;;;;;10.13;6.20;;;;;;;;;;5053974;28;20029;-74
2023/01/29 03:05:42;;;;;;;10.60;6.10;;;;;;;;;;5052717;28;20021;-76
2023/01/29 03:08:10;;;;;;;10.03;5.57;;;;;;;;;;5054142;28;20082;-77
2023/01/29 03:11:05;;;;;;;15.83;6.50;;;;;;;;;;5053950;28;20028;-75
2023/01/29 03:13:49;;;;;;;11.73;6.77;;;;;;;;;;5053258;28;20503;-77
2023/01/29 03:16:23;;;;;;;10.53;6.27;;;;;;;;;;5053818;28;20035;-78
2023/01/29 03:19:11;;;;;;;12.17;7.10;;;;;;;;;;5053725;28;20029;-76
2023/01/29 03:21:53;;;;;;;11.43;6.10;;;;;;;;;;5052445;28;20036;-76
2023/01/29 03:32:51;;;;;;;10.93;5.40;;;;;;;;;;5054295;28;20055;-75
2023/01/29 03:35:32;;;;;;;13.50;7.13;;;;;;;;;;5053503;28;20086;-77
2023/01/29 03:37:59;;;;;;;12.10;6.27;;;;;;;;;;5052443;28;20476;-77
2023/01/29 03:40:26;;;;;;;12.10;6.53;;;;;;;;;;5052164;28;20086;-76
2023/01/29 03:43:01;;;;;;;14.80;6.97;;;;;;;;;;5052008;28;20025;-75
2023/01/29 03:45:41;;;;;;;12.90;6.73;;;;;;;;;;5052297;28;20162;-77
2023/01/29 03:48:28;;;;;;;11.07;6.70;;;;;;;;;;5052284;28;20051;-77
2023/01/29 03:51:00;;;;;;;15.17;7.03;;;;;;;;;;5052036;28;20107;-78
2023/01/29 03:53:31;;;;;;;9.50;5.78;;;;;;;;;;5053595;28;20063;-77
2023/01/29 03:56:13;;;;;;;12.85;7.05;;;;;;;;;;5053438;28;20086;-75
2023/01/29 03:58:42;;;;;;;;;;;;;;;;;;5054161;28;20423;-78
2023/01/29 04:01:20;;;;;;;11.33;6.00;;;;;;;;;;5052586;28;19951;-77
2023/01/29 04:03:58;;;;;;;11.17;5.40;;;;;;;;;;5051926;28;20037;-76
2023/01/29 04:06:28;;;;;;;10.63;5.47;;;;;;;;;;5053161;28;20048;-77
2023/01/29 04:09:32;;;;;;;18.80;7.53;;;;;;;;;;5052929;28;20025;-76
2023/01/29 04:12:08;;;;;;;13.37;6.40;;;;;;;;;;5051631;28;20029;-77
2023/01/29 04:14:33;;;;;;;12.47;6.40;;;;;;;;;;5035587;28;20036;-75
2023/01/29 04:17:02;;;;;;;16.67;7.17;;;;;;;;;;5052647;28;20029;-75
2023/01/29 04:19:28;;;;;;;9.40;6.07;;;;;;;;;;5053134;28;20078;-76
2023/01/29 04:22:04;;;;;;;11.90;6.73;;;;;;;;;;5052894;28;20095;-77
2023/01/29 04:24:31;;;;;;;12.50;7.03;;;;;;;;;;5051764;28;20564;-76
2023/01/29 04:27:11;;;;;;;12.03;6.17;;;;;;;;;;5051357;28;20029;-78
2023/01/29 04:29:37;;;;;;;15.47;7.33;;;;;;;;;;5053013;28;20025;-77
2023/01/29 04:32:29;;;;;;;18.73;6.30;;;;;;;;;;5052040;28;20028;-78
2023/01/29 04:34:55;;;;;;;;;;;;;;;;;;5052764;28;20493;-76
2023/01/29 04:37:39;;;;;;;14.23;6.90;;;;;;;;;;5051677;28;19919;-75
2023/01/29 04:40:27;;;;;;;12.43;6.23;;;;;;;;;;5051550;28;20424;-77
2023/01/29 04:43:07;;;;;;;9.40;5.80;;;;;;;;;;5051766;28;20480;-77
2023/01/29 04:45:51;;;;;;;11.50;5.07;;;;;;;;;;5053395;28;20017;-76
2023/01/29 04:48:33;;;;;;;11.60;6.23;;;;;;;;;;5052782;28;20084;-74
2023/01/29 04:51:11;;;;;;;13.15;6.10;;;;;;;;;;5051506;28;20025;-77
2023/01/29 04:53:57;;;;;;;14.23;6.60;;;;;;;;;;5052562;28;20104;-75
2023/01/29 04:56:34;;;;;;;11.93;6.67;;;;;;;;;;5052733;28;20021;-76
2023/01/29 04:59:14;;;;;;;13.13;6.90;;;;;;;;;;5051425;28;20021;-76
2023/01/29 05:01:40;;;;;;;11.77;6.10;;;;;;;;;;5052697;28;20115;-76
2023/01/29 05:04:10;;;;;;;12.60;6.97;;;;;;;;;;5054133;28;20032;-76
2023/01/29 05:06:38;;;;;;;11.87;6.00;;;;;;;;;;5055023;28;20033;-76
2023/01/29 05:09:04;;;;;;;20.77;7.60;;;;;;;;;;5056419;28;20031;-76
2023/01/29 05:11:33;;;;;;;13.30;6.70;;;;;;;;;;5056432;28;20467;-78
2023/01/29 05:14:02;;;;;;;15.23;6.80;;;;;;;;;;5056796;28;20032;-77
2023/01/29 05:16:40;;;;;;;12.43;6.67;;;;;;;;;;5055205;28;20021;-78
2023/01/29 05:19:14;;;;;;;18.70;7.57;;;;;;;;;;5056189;28;20118;-75
2023/01/29 05:21:44;;;;;;;14.10;6.23;;;;;;;;;;5056392;28;20066;-75
2023/01/29 05:24:11;;;;;;;12.03;6.60;;;;;;;;;;5054828;28;20357;-75
2023/01/29 05:29:21;;;;;;;15.50;6.60;;;;;;;;;;5056364;28;20472;-75
2023/01/29 05:31:47;;;;;;;10.07;5.80;;;;;;;;;;5054648;28;20020;-75
2023/01/29 05:34:12;;;;;;;15.47;6.43;;;;;;;;;;5055928;28;20507;-78
2023/01/29 05:36:38;;;;;;;15.73;7.07;;;;;;;;;;5054456;28;20021;-74
2023/01/29 05:39:03;;;;;;;10.47;5.73;;;;;;;;;;5054320;28;20083;-75
2023/01/29 05:41:29;;;;;;;11.63;5.70;;;;;;;;;;5054558;28;20028;-78
2023/01/29 05:43:54;;;;;;;12.57;5.97;;;;;;;;;;5055308;28;20404;-75
2023/01/29 05:46:20;;;;;;;15.43;6.37;;;;;;;;;;5055773;28;20101;-78
2023/01/29 05:48:45;;;;;;;13.53;6.87;;;;;;;;;;5054962;28;20104;-77
2023/01/29 05:51:11;;;;;;;7.90;4.73;;;;;;;;;;5054467;28;20116;-76
2023/01/29 05:53:36;;;;;;;7.17;5.00;;;;;;;;;;5056090;28;20025;-78
2023/01/29 05:56:03;;;;;;;9.93;4.97;;;;;;;;;;5055718;28;20025;-76
2023/01/29 05:58:30;;;;;;;8.20;5.33;;;;;;;;;;5054481;28;20417;-75
2023/01/29 06:00:56;;;;;;;8.17;4.90;;;;;;;;;;5055524;28;20024;-76
2023/01/29 06:03:21;;;;;;;9.03;5.00;;;;;;;;;;5054226;28;20028;-76
2023/01/29 06:05:47;;;;;;;8.57;5.13;;;;;;;;;;5054023;28;20025;-77
2023/01/29 06:08:12;;;;;;;8.07;3.87;;;;;;;;;;5055397;28;20090;-77
2023/01/29 06:10:38;;;;;;;10.00;4.73;;;;;;;;;;5055463;28;20065;-76
2023/01/29 06:13:03;;;;;;;7.10;4.60;;;;;;;;;;5053868;28;20483;-77
2023/01/29 06:15:29;;;;;;;6.57;4.33;;;;;;;;;;5053998;28;20368;-76
2023/01/29 06:17:55;;;;;;;7.73;4.50;;;;;;;;;;5055451;28;20060;-76
2023/01/29 06:20:22;;;;;;;7.10;4.77;;;;;;;;;;5053605;28;20029;-77
2023/01/29 06:22:47;;;;;;;8.07;4.90;;;;;;;;;;5053443;28;20029;-76
2023/01/29 06:25:13;;;;;;;7.77;4.70;;;;;;;;;;5055241;28;20087;-75
2023/01/29 06:27:41;;;;;;;10.53;5.50;;;;;;;;;;5053788;28;20457;-80
2023/01/29 06:30:07;;;;;;;10.00;5.50;;;;;;;;;;5054321;28;20079;-77
2023/01/29 06:32:33;;;;;;;11.93;6.03;;;;;;;;;;5055579;28;20124;-77
2023/01/29 06:34:58;;;;;;;8.93;5.47;;;;;;;;;;5054849;28;20104;-77
2023/01/29 06:37:24;;;;;;;8.53;5.30;;;;;;;;;;5053885;28;20037;-75
2023/01/29 06:39:50;;;;;;;7.93;4.20;;;;;;;;;;5054216;28;20029;-75
2023/01/29 06:42:15;;;;;;;10.83;5.67;;;;;;;;;;5053316;28;20031;-77
2023/01/29 06:44:41;;;;;;;9.60;5.13;;;;;;;;;;5053047;28;20118;-77
2023/01/29 06:47:06;;;;;;;10.37;4.93;;;;;;;;;;5053161;28;20127;-76
2023/01/29 06:49:31;;;;;;;9.30;5.57;;;;;;;;;;5054915;28;20523;-76
2023/01/29 06:51:57;;;;;;;7.37;4.63;;;;;;;;;;5054408;28;20032;-77
2023/01/29 06:54:23;;;;;;;8.03;4.73;;;;;;;;;;5052976;28;20033;-77
2023/01/29 06:56:48;;;;;;;7.17;5.13;;;;;;;;;;5052962;28;20516;-77
2023/01/29 06:59:14;;;;;;;6.10;4.53;;;;;;;;;;5054225;28;20025;-77
2023/01/29 07:01:41;;;;;;;8.90;4.93;;;;;;;;;;5052976;28;20390;-75
2023/01/29 07:04:06;;;;;;;9.30;5.57;;;;;;;;;;5052709;28;20119;-76
2023/01/29 07:06:32;;;;;;;6.67;4.10;;;;;;;;;;5053033;28;20158;-78
2023/01/29 07:08:57;;;;;;;6.37;4.90;;;;;;;;;;5052778;28;20029;-76
2023/01/29 07:11:23;;;;;;;7.50;4.80;;;;;;;;;;5053438;28;20039;-75
2023/01/29 07:13:49;;;;;;;11.03;4.27;;;;;;;;;;5052289;28;20040;-79
2023/01/29 07:16:14;;;;;;;9.10;4.83;;;;;;;;;;5052379;28;20026;-77
2023/01/29 07:18:40;;;;;;;12.93;6.07;;;;;;;;;;5053852;28;20063;-75
2023/01/29 07:21:06;;;;;;;7.33;4.63;;;;;;;;;;5053764;28;20104;-75
2023/01/29 07:23:34;;;;;;;7.37;4.63;;;;;;;;;;5052582;28;20435;-77
2023/01/29 07:26:04;;;;;;;6.70;4.83;;;;;;;;;;5052700;28;20024;-76
2023/01/29 07:28:30;;;;;;;8.67;4.73;;;;;;;;;;5052905;28;20445;-78
2023/01/29 07:30:57;;;;;;;6.43;4.27;;;;;;;;;;5053733;28;20033;-77
2023/01/29 07:33:23;;;;;;;9.90;5.07;;;;;;;;;;5052655;28;20033;-77
2023/01/29 07:35:48;;;;;;;9.23;4.80;;;;;;;;;;5052589;28;20035;-77
2023/01/29 07:38:14;;;;;;;8.50;4.83;;;;;;;;;;5051970;28;20029;-76
2023/01/29 07:40:39;;;;;;;7.53;4.27;;;;;;;;;;5052225;28;20071;-75
2023/01/29 07:43:06;;;;;;;7.63;4.83;;;;;;;;;;5054226;28;20029;-78
2023/01/29 07:45:34;;;;;;;7.50;5.10;;;;;;;;;;5053767;28;20041;-75
2023/01/29 07:47:59;;;;;;;6.47;4.50;;;;;;;;;;5052001;28;20064;-76
2023/01/29 07:50:26;;;;;;;7.47;4.80;;;;;;;;;;5053546;28;20370;-76
2023/01/29 07:52:55;;;;;;;15.13;5.07;;;;;;;;;;5053694;28;20025;-76
2023/01/29 07:55:21;;;;;;;19.27;6.20;;;;;;;;;;5052129;28;20029;-76
2023/01/29 07:57:47;;;;;;;6.33;3.67;;;;;;;;;;5051710;28;20043;-77
2023/01/29 08:00:13;;;;;;;8.00;4.13;;;;;;;;;;5052099;28;20488;-77
2023/01/29 08:02:41;;;;;;;6.17;4.20;;;;;;;;;;5051737;28;20139;-76
2023/01/29 08:05:07;;;;;;;8.23;4.80;;;;;;;;;;5051643;28;20056;-78
2023/01/29 08:07:32;;;;;;;8.00;3.77;;;;;;;;;;5051594;28;20039;-78
2023/01/29 08:09:58;;;;;;;8.30;4.37;;;;;;;;;;5053418;28;20029;-78
2023/01/29 08:12:23;;;;;;;6.97;4.10;;;;;;;;;;5052941;28;20028;-78
2023/01/29 08:14:49;;;;;;;9.87;4.70;;;;;;;;;;5051687;28;20028;-78
2023/01/29 08:17:14;;;;;;;6.40;3.87;;;;;;;;;;5051392;28;20071;-77
2023/01/29 08:19:40;;;;;;;8.13;4.50;;;;;;;;;;5051291;28;20043;-75
2023/01/29 08:22:05;;;;;;;6.50;3.63;;;;;;;;;;5052602;28;20039;-77
2023/01/29 08:24:31;;;;;;;6.30;4.23;;;;;;;;;;5051503;28;20033;-77
2023/01/29 08:26:57;;;;;;;6.23;3.93;;;;;;;;;;5052465;28;20079;-77
2023/01/29 08:29:22;;;;;;;8.80;4.93;;;;;;;;;;5051207;28;20048;-76
2023/01/29 08:31:48;;;;;;;9.90;4.60;;;;;;;;;;5051192;28;20503;-78
2023/01/29 08:34:13;;;;;;;9.07;4.63;;;;;;;;;;5052182;28;20053;-77
2023/01/29 08:36:39;;;;;;;5.70;4.37;;;;;;;;;;5052374;28;20052;-78
2023/01/29 08:39:04;;;;;;;11.10;4.53;;;;;;;;;;5055644;28;20092;-76
2023/01/29 08:41:30;;;;;;;8.63;4.70;;;;;;;;;;5055382;28;20032;-76
2023/01/29 08:43:57;;;;;;;7.73;4.30;;;;;;;;;;5054880;28;20045;-77
2023/01/29 08:46:22;;;;;;;7.27;4.43;;;;;;;;;;5055279;28;20115;-75
2023/01/29 08:48:48;;;;;;;22.40;6.87;;;;;;;;;;5056493;28;20032;-76
2023/01/29 08:51:13;;;;;;;8.30;4.30;;;;;;;;;;5056589;28;20025;-76
2023/01/29 08:53:39;;;;;;;13.03;5.00;;;;;;;;;;5056380;28;20029;-77
2023/01/29 08:56:05;;;;;;;6.80;4.83;;;;;;;;;;5055139;28;20060;-77
2023/01/29 08:58:30;;;;;;;6.70;4.17;;;;;;;;;;5054910;28;20037;-76
2023/01/29 09:01:03;;;;;;;16.70;8.77;;;;;;;;;;5055066;28;20033;-76
2023/01/29 09:03:29;;;;;;;5.40;4.37;;;;;;;;;;5055349;28;20082;-77
2023/01/29 09:05:55;;;;;;;5.77;4.10;;;;;;;;;;5054825;28;20033;-76
2023/01/29 09:08:20;;;;;;;9.00;4.73;;;;;;;;;;5056362;28;20052;-79
2023/01/29 09:10:46;;;;;;;6.63;4.53;;;;;;;;;;5054815;28;20131;-76
2023/01/29 09:13:11;;;;;;;9.30;4.80;;;;;;;;;;5054374;28;20033;-80
2023/01/29 09:15:37;;;;;;;9.23;4.70;;;;;;;;;;5056243;28;20063;-75
2023/01/29 09:18:04;;;;;;;7.20;5.20;;;;;;;;;;5055108;28;20082;-74
2023/01/29 09:20:29;;;;;;;9.17;4.70;;;;;;;;;;5054516;28;20443;-76
2023/01/29 09:22:55;;;;;;;6.07;4.20;;;;;;;;;;5056278;28;20037;-76
2023/01/29 09:25:21;;;;;;;10.50;4.73;;;;;;;;;;5055587;28;20136;-76
2023/01/29 09:27:46;;;;;;;8.73;4.87;;;;;;;;;;5054116;28;20473;-78
2023/01/29 09:30:14;;;;;;;8.17;4.37;;;;;;;;;;5054649;28;20037;-76
2023/01/29 09:32:39;;;;;;;7.87;4.87;;;;;;;;;;5055755;28;20083;-77
2023/01/29 09:35:05;;;;;;;6.77;4.93;;;;;;;;;;5055758;28;20384;-76
2023/01/29 09:37:30;;;;;;;11.80;6.20;;;;;;;;;;5055773;28;20043;-77
2023/01/29 09:39:56;;;;;;;14.13;5.30;;;;;;;;;;5055582;28;20037;-78
2023/01/29 09:42:40;;;;;;;10.27;6.03;;;;;;;;;;5054385;28;20040;-75
2023/01/29 09:45:09;;;;;;;7.13;4.37;;;;;;;;;;5053714;28;20048;-75
2023/01/29 09:47:35;;;;;;;9.53;5.70;;;;;;;;;;5055339;28;20036;-75
2023/01/29 09:50:12;;;;;;;13.70;5.93;;;;;;;;;;5055200;28;20435;-77
2023/01/29 09:52:48;;;;;;;13.07;6.27;;;;;;;;;;5055686;28;20392;-78
2023/01/29 09:55:19;;;;;;;15.73;6.57;;;;;;;;;;5054144;28;20495;-78
2023/01/29 09:57:51;;;;;;;9.83;5.40;;;;;;;;;;5053946;28;20032;-79
2023/01/29 10:00:36;;;;;;;8.07;5.75;;;;;;;;;;5055249;28;20121;-77
2023/01/29 10:03:23;;;;;;;11.13;6.03;;;;;;;;;;5054994;28;20025;-75
2023/01/29 10:06:18;;;;;;;12.07;6.10;;;;;;;;;;5053449;28;20028;-76
2023/01/29 10:09:21;;;;;;;12.23;6.33;;;;;;;;;;5054067;28;20033;-76
2023/01/29 10:12:01;;;;;;;9.00;6.53;;;;;;;;;;5054590;28;20469;-76
2023/01/29 10:14:59;;;;;;;14.33;6.93;;;;;;;;;;5053759;28;20055;-78
2023/01/29 10:17:31;;;;;;;12.50;6.07;;;;;;;;;;5054175;28;20044;-76
2023/01/29 10:20:15;;;;;;;;;;;;;;;;;;5055144;28;20036;-76
2023/01/29 10:23:02;;;;;;;5.87;4.87;;;;;;;;;;5054761;28;19919;-76
2023/01/29 10:25:27;;;;;;;9.67;5.70;;;;;;;;;;5053129;28;20073;-78
2023/01/29 10:27:55;;;;;;;19.57;6.37;;;;;;;;;;5053653;28;20032;-79
2023/01/29 10:30:36;;;;;;;11.80;6.87;;;;;;;;;;5053380;28;20078;-77
2023/01/29 10:33:04;;;;;;;9.73;5.90;;;;;;;;;;5054825;28;20143;-77
2023/01/29 10:35:34;;;;;;;6.77;5.30;;;;;;;;;;5054328;28;20025;-76
2023/01/29 10:38:30;;;;;;;10.77;5.90;;;;;;;;;;5053183;28;20020;-79
2023/01/29 10:41:11;;;;;;;13.40;6.37;;;;;;;;;;5053523;28;20501;-76
2023/01/29 10:44:07;;;;;;;7.90;5.07;;;;;;;;;;5054338;28;20192;-78
2023/01/29 10:46:52;;;;;;;10.17;5.57;;;;;;;;;;5054668;28;20025;-78
2023/01/29 10:49:55;;;;;;;9.97;5.53;;;;;;;;;;5052904;28;20032;-76
2023/01/29 10:52:42;;;;;;;15.50;5.87;;;;;;;;;;5052758;28;20021;-76
2023/01/29 10:55:20;;;;;;;6.70;5.10;;;;;;;;;;5054078;28;20361;-78
2023/01/29 10:58:01;;;;;;;9.20;5.43;;;;;;;;;;5052823;28;20118;-76
2023/01/29 11:00:34;;;;;;;16.17;5.93;;;;;;;;;;5051984;28;20028;-77
2023/01/29 11:03:20;;;;;;;12.60;6.47;;;;;;;;;;5052950;28;20104;-78
2023/01/29 11:06:00;;;;;;;12.17;6.10;;;;;;;;;;5054042;28;20387;-76
2023/01/29 11:08:37;;;;;;;10.40;5.40;;;;;;;;;;5053054;28;20021;-76
2023/01/29 11:11:13;;;;;;;8.73;5.53;;;;;;;;;;5054268;28;20024;-76
2023/01/29 11:13:56;;;;;;;12.13;5.63;;;;;;;;;;5054202;28;20465;-77
2023/01/29 11:16:22;;;;;;;8.07;5.20;;;;;;;;;;5052857;28;20493;-76
2023/01/29 11:18:53;;;;;;;10.07;5.70;;;;;;;;;;5054006;28;20020;-76
2023/01/29 11:21:19;;;;;;;8.25;5.03;;;;;;;;;;5052219;28;20460;-78
2023/01/29 11:23:45;;;;;;;16.27;6.43;;;;;;;;;;5052254;28;20037;-75
2023/01/29 11:26:12;;;;;;;7.23;5.20;;;;;;;;;;5053477;28;20384;-78
2023/01/29 11:28:41;;;;;;;13.50;6.27;;;;;;;;;;5052470;28;20052;-78
2023/01/29 11:31:26;;;;;;;9.33;5.40;;;;;;;;;;5052164;28;20607;-78
2023/01/29 11:34:01;;;;;;;7.27;4.77;;;;;;;;;;5051709;28;20095;-77
2023/01/29 11:36:37;;;;;;;10.73;5.70;;;;;;;;;;5052071;28;20033;-78
2023/01/29 11:39:19;;;;;;;8.83;5.33;;;;;;;;;;5052247;28;20052;-78
2023/01/29 11:41:49;;;;;;;9.90;5.15;;;;;;;;;;5053449;28;20059;-77
2023/01/29 11:44:31;;;;;;;10.63;5.37;;;;;;;;;;5053220;28;20072;-76
2023/01/29 11:47:19;;;;;;;10.73;6.00;;;;;;;;;;5053172;28;20028;-76
2023/01/29 11:49:48;;;;;;;9.70;5.50;;;;;;;;;;5052355;28;20028;-76
2023/01/29 11:52:18;;;;;;;16.63;6.43;;;;;;;;;;5052006;28;20045;-78
2023/01/29 11:55:01;;;;;;;8.33;5.73;;;;;;;;;;5053075;28;20121;-77
2023/01/29 11:57:33;;;;;;;12.85;5.88;;;;;;;;;;5035566;28;20098;-77
2023/01/29 12:00:25;;;;;;;9.73;5.40;;;;;;;;;;5051706;28;20036;-78
2023/01/29 12:03:00;;;;;;;7.70;5.45;;;;;;;;;;5037887;28;20408;-77
2023/01/29 12:05:26;;;;;;;9.90;5.83;;;;;;;;;;5051780;28;20086;-77
2023/01/29 12:07:58;;;;;;;10.03;5.43;;;;;;;;;;5052807;28;20031;-75
2023/01/29 12:10:41;;;;;;;10.30;6.27;;;;;;;;;;5051154;28;20028;-77
2023/01/29 12:13:10;;;;;;;9.17;5.70;;;;;;;;;;5050787;28;20465;-76
2023/01/29 12:15:42;;;;;;;8.63;5.60;;;;;;;;;;5051352;28;20481;-76
2023/01/29 12:18:15;;;;;;;14.17;5.30;;;;;;;;;;5036082;28;20445;-75
2023/01/29 12:20:49;;;;;;;10.03;5.53;;;;;;;;;;5052835;28;20100;-77
2023/01/29 12:23:29;;;;;;;14.83;6.57;;;;;;;;;;5051398;28;20033;-75
2023/01/29 12:26:18;;;;;;;9.27;5.73;;;;;;;;;;5052608;28;20060;-78
2023/01/29 12:29:19;;;;;;;14.40;7.40;;;;;;;;;;5052743;28;20107;-75
2023/01/29 12:32:06;;;;;;;13.37;7.60;;;;;;;;;;5043889;28;20043;-78
2023/01/29 12:34:45;;;;;;;8.23;5.97;;;;;;;;;;5051407;28;20044;-75
2023/01/29 12:37:34;;;;;;;11.20;5.93;;;;;;;;;;5051199;28;20385;-77
2023/01/29 12:40:00;;;;;;;14.10;6.97;;;;;;;;;;5052935;28;20025;-75
2023/01/29 12:42:26;;;;;;;10.87;6.03;;;;;;;;;;5051436;28;20028;-77
2023/01/29 12:45:05;;;;;;;11.73;5.90;;;;;;;;;;5052349;28;20044;-76
2023/01/29 12:47:47;;;;;;;10.33;5.60;;;;;;;;;;5052450;28;20405;-75
2023/01/29 12:50:26;;;;;;;11.20;5.65;;;;;;;;;;5052243;28;20032;-77
2023/01/29 12:52:54;;;;;;;8.07;5.23;;;;;;;;;;5051026;28;20116;-77
2023/01/29 12:55:23;;;;;;;9.97;6.27;;;;;;;;;;5052294;28;20033;-77
2023/01/29 12:58:03;;;;;;;11.53;5.83;;;;;;;;;;5051061;28;20040;-76
2023/01/29 13:00:33;;;;;;;13.00;5.87;;;;;;;;;;5050799;28;20509;-77
2023/01/29 13:03:17;;;;;;;12.87;6.40;;;;;;;;;;5051532;28;20033;-76
2023/01/29 13:05:47;;;;;;;12.50;5.27;;;;;;;;;;5050917;28;20021;-78
2023/01/29 13:08:30;;;;;;;14.20;6.87;;;;;;;;;;5052165;28;20068;-77
2023/01/29 13:11:00;;;;;;;9.60;5.83;;;;;;;;;;5050895;28;20078;-76
2023/01/29 13:13:29;;;;;;;11.13;6.33;;;;;;;;;;5050814;28;20028;-77
2023/01/29 13:15:56;;;;;;;15.17;6.30;;;;;;;;;;5051006;28;20032;-76
2023/01/29 13:18:48;;;;;;;14.70;6.50;;;;;;;;;;5052262;28;20088;-78
2023/01/29 13:21:24;;;;;;;10.80;6.47;;;;;;;;;;5051875;28;20035;-78
2023/01/29 13:23:52;;;;;;;36.33;9.47;;;;;;;;;;5053355;28;20037;-78
2023/01/29 13:26:21;;;;;;;18.57;7.43;;;;;;;;;;5054627;28;20035;-75
2023/01/29 13:28:48;;;;;;;12.63;6.60;;;;;;;;;;5054470;28;20511;-77
2023/01/29 13:31:23;;;;;;;9.97;6.10;;;;;;;;;;5054718;28;20630;-78
2023/01/29 13:34:11;;;;;;;12.30;6.40;;;;;;;;;;5055755;28;20029;-78
2023/01/29 13:36:42;;;;;;;8.27;5.40;;;;;;;;;;5054906;28;20032;-78
2023/01/29 13:39:21;;;;;;;9.37;6.13;;;;;;;;;;5054636;28;20060;-79
2023/01/29 13:41:48;;;;;;;12.07;6.73;;;;;;;;;;5054314;28;20428;-76
2023/01/29 13:44:37;;;;;;;10.67;6.53;;;;;;;;;;5053959;28;20048;-75
2023/01/29 13:47:06;;;;;;;18.13;6.50;;;;;;;;;;5055778;28;20155;-76
2023/01/29 13:49:34;;;;;;;11.73;6.13;;;;;;;;;;5054427;28;20029;-78
2023/01/29 13:52:31;;;;;;;13.73;6.77;;;;;;;;;;5055005;28;20067;-75
2023/01/29 13:55:04;;;;;;;12.50;6.07;;;;;;;;;;5054452;28;20033;-78
2023/01/29 13:57:45;;;;;;;11.27;6.00;;;;;;;;;;5054367;28;20024;-77
2023/01/29 14:00:19;;;;;;;12.63;6.83;;;;;;;;;;5056132;28;20407;-76
2023/01/29 14:02:54;;;;;;;10.93;6.50;;;;;;;;;;5055369;28;20090;-78
2023/01/29 14:05:29;;;;;;;10.23;5.87;;;;;;;;;;5054323;28;20029;-77
2023/01/29 14:07:58;;;;;;;9.93;5.70;;;;;;;;;;5055958;28;20061;-76
2023/01/29 14:10:27;;;;;;;11.23;6.23;;;;;;;;;;5055095;28;20045;-78
2023/01/29 14:12:54;;;;;;;54.20;8.77;;;;;;;;;;5055127;28;20110;-76
2023/01/29 14:15:38;;;;;;;12.20;5.93;;;;;;;;;;5054937;28;20035;-75
2023/01/29 14:18:08;;;;;;;8.93;6.03;;;;;;;;;;5054825;28;20441;-77
2023/01/29 14:20:40;;;;;;;11.93;6.50;;;;;;;;;;5055541;28;20414;-78
2023/01/29 14:23:15;;;;;;;11.55;6.18;;;;;;;;;;5053605;28;20029;-76
2023/01/29 14:25:41;;;;;;;11.37;6.87;;;;;;;;;;5055187;28;20539;-76
2023/01/29 14:28:19;;;;;;;10.47;6.03;;;;;;;;;;5053109;28;20048;-76
2023/01/29 14:30:47;;;;;;;11.73;6.43;;;;;;;;;;5053647;28;20060;-78
2023/01/29 14:33:34;;;;;;;9.30;6.10;;;;;;;;;;5054757;28;20385;-75
2023/01/29 14:36:11;;;;;;;10.23;5.83;;;;;;;;;;5052149;28;20028;-78
2023/01/29 14:38:39;;;;;;;10.27;5.67;;;;;;;;;;5053667;28;20067;-76
2023/01/29 14:41:28;;;;;;;13.27;7.17;;;;;;;;;;5053775;28;20116;-74
2023/01/29 14:44:31;;;;;;;11.33;5.90;;;;;;;;;;5052865;28;20052;-79
2023/01/29 14:46:58;;;;;;;12.10;6.60;;;;;;;;;;5054322;28;20021;-76
2023/01/29 14:49:53;;;;;;;13.60;6.67;;;;;;;;;;5054429;28;20033;-77
2023/01/29 14:52:27;;;;;;;15.77;6.43;;;;;;;;;;5054062;28;20024;-76
2023/01/29 14:54:58;;;;;;;17.60;6.73;;;;;;;;;;5052910;28;20033;-76
2023/01/29 14:57:25;;;;;;;21.70;7.32;;;;;;;;;;5054313;28;20021;-79
2023/01/29 14:59:54;;;;;;;14.70;5.97;;;;;;;;;;5054469;28;20036;-77
2023/01/29 15:02:35;;;;;;;14.07;6.63;;;;;;;;;;5052947;28;20037;-76
2023/01/29 15:05:03;;;;;;;13.93;6.93;;;;;;;;;;5053056;28;20059;-76
2023/01/29 15:07:43;;;;;;;13.03;6.33;;;;;;;;;;5036772;28;20046;-76
2023/01/29 15:10:17;;;;;;;15.90;7.20;;;;;;;;;;5053118;28;20473;-77
2023/01/29 15:13:00;;;;;;;22.43;7.33;;;;;;;;;;5053009;28;20074;-77
2023/01/29 15:15:32;;;;;;;9.43;5.60;;;;;;;;;;5054100;28;20020;-76
2023/01/29 15:18:14;;;;;;;11.68;6.18;;;;;;;;;;5052594;28;20025;-76
2023/01/29 15:20:41;;;;;;;10.32;6.15;;;;;;;;;;5052716;28;20029;-78
2023/01/29 15:23:29;;;;;;;12.30;6.60;;;;;;;;;;5054144;28;20029;-75
2023/01/29 15:25:58;;;;;;;11.60;6.33;;;;;;;;;;5052197;28;20025;-77
2023/01/29 15:28:24;;;;;;;14.53;7.43;;;;;;;;;;5035921;28;20056;-79
2023/01/29 15:30:57;;;;;;;15.07;7.30;;;;;;;;;;5052623;28;20491;-76
2023/01/29 15:33:23;;;;;;;13.87;7.80;;;;;;;;;;5053365;28;20028;-78
2023/01/29 15:35:55;;;;;;;10.63;5.73;;;;;;;;;;5053846;28;20495;-78
2023/01/29 15:38:24;;;;;;;14.90;6.78;;;;;;;;;;5052646;28;20081;-76